sensor_id;sensor_type;location;lat;lon;timestamp;P1;durP1;ratioP1;P2;durP2;ratioP2
12990;SDS011;6560;57.692;11.958;2022-08-01T00:00:11;12.65;;;10.80;;
12990;SDS011;6560;57.692;11.958;2022-08-01T00:02:37;12.85;;;11.43;;
12990;SDS011;6560;57.692;11.958;2022-08-01T00:05:03;13.70;;;10.95;;
12990;SDS011;6560;57.692;11.958;2022-08-01T00:07:32;10.63;;;9.65;;
12990;SDS011;6560;57.692;11.958;2022-08-01T00:09:58;13.07;;;10.45;;
12990;SDS011;6560;57.692;11.958;2022-08-01T00:12:24;15.45;;;12.05;;
12990;SDS011;6560;57.692;11.958;2022-08-01T00:14:49;14.32;;;11.82;;
12990;SDS011;6560;57.692;11.958;2022-08-01T00:17:15;11.05;;;9.98;;
12990;SDS011;6560;57.692;11.958;2022-08-01T00:19:40;10.45;;;8.82;;
12990;SDS011;6560;57.692;11.958;2022-08-01T00:22:06;13.48;;;10.63;;
12990;SDS011;6560;57.692;11.958;2022-08-01T00:24:31;13.07;;;9.43;;
12990;SDS011;6560;57.692;11.958;2022-08-01T00:26:58;11.73;;;10.15;;
12990;SDS011;6560;57.692;11.958;2022-08-01T00:29:23;11.43;;;9.48;;
12990;SDS011;6560;57.692;11.958;2022-08-01T00:31:48;11.00;;;9.45;;
12990;SDS011;6560;57.692;11.958;2022-08-01T00:34:14;11.90;;;9.77;;
12990;SDS011;6560;57.692;11.958;2022-08-01T00:36:39;9.75;;;8.82;;
12990;SDS011;6560;57.692;11.958;2022-08-01T00:39:05;12.13;;;10.98;;
12990;SDS011;6560;57.692;11.958;2022-08-01T00:41:30;11.18;;;10.10;;
12990;SDS011;6560;57.692;11.958;2022-08-01T00:43:56;11.80;;;10.35;;
12990;SDS011;6560;57.692;11.958;2022-08-01T00:46:21;11.35;;;10.20;;
12990;SDS011;6560;57.692;11.958;2022-08-01T00:48:47;12.23;;;10.80;;
12990;SDS011;6560;57.692;11.958;2022-08-01T00:51:13;11.50;;;9.75;;
12990;SDS011;6560;57.692;11.958;2022-08-01T00:53:38;12.07;;;10.80;;
12990;SDS011;6560;57.692;11.958;2022-08-01T00:56:05;15.88;;;11.07;;
12990;SDS011;6560;57.692;11.958;2022-08-01T00:58:31;10.23;;;9.23;;
12990;SDS011;6560;57.692;11.958;2022-08-01T01:00:58;9.70;;;8.93;;
12990;SDS011;6560;57.692;11.958;2022-08-01T01:03:24;12.15;;;10.95;;
12990;SDS011;6560;57.692;11.958;2022-08-01T01:06:01;13.15;;;10.27;;
12990;SDS011;6560;57.692;11.958;2022-08-01T01:08:41;12.05;;;10.85;;
12990;SDS011;6560;57.692;11.958;2022-08-01T01:14:23;14.15;;;10.57;;
12990;SDS011;6560;57.692;11.958;2022-08-01T01:16:58;11.57;;;10.30;;
12990;SDS011;6560;57.692;11.958;2022-08-01T01:19:28;11.15;;;10.10;;
12990;SDS011;6560;57.692;11.958;2022-08-01T01:22:00;11.43;;;10.32;;
12990;SDS011;6560;57.692;11.958;2022-08-01T01:25:02;11.13;;;10.02;;
12990;SDS011;6560;57.692;11.958;2022-08-01T01:30:49;13.77;;;10.80;;
12990;SDS011;6560;57.692;11.958;2022-08-01T01:33:16;13.80;;;12.40;;
12990;SDS011;6560;57.692;11.958;2022-08-01T01:35:48;12.68;;;11.38;;
12990;SDS011;6560;57.692;11.958;2022-08-01T01:38:21;12.68;;;10.65;;
12990;SDS011;6560;57.692;11.958;2022-08-01T01:40:50;15.68;;;12.25;;
12990;SDS011;6560;57.692;11.958;2022-08-01T01:43:17;12.15;;;10.80;;
12990;SDS011;6560;57.692;11.958;2022-08-01T01:45:45;17.63;;;12.40;;
12990;SDS011;6560;57.692;11.958;2022-08-01T01:48:13;12.52;;;11.23;;
12990;SDS011;6560;57.692;11.958;2022-08-01T01:50:42;15.52;;;12.23;;
12990;SDS011;6560;57.692;11.958;2022-08-01T01:53:10;13.60;;;12.30;;
12990;SDS011;6560;57.692;11.958;2022-08-01T01:55:39;15.13;;;12.95;;
12990;SDS011;6560;57.692;11.958;2022-08-01T01:58:06;12.13;;;10.98;;
12990;SDS011;6560;57.692;11.958;2022-08-01T02:00:34;12.55;;;11.27;;
12990;SDS011;6560;57.692;11.958;2022-08-01T02:03:03;13.95;;;11.48;;
12990;SDS011;6560;57.692;11.958;2022-08-01T02:05:30;10.65;;;9.75;;
12990;SDS011;6560;57.692;11.958;2022-08-01T02:07:59;10.35;;;9.35;;
12990;SDS011;6560;57.692;11.958;2022-08-01T02:10:28;11.18;;;10.10;;
12990;SDS011;6560;57.692;11.958;2022-08-01T02:12:56;11.43;;;10.30;;
12990;SDS011;6560;57.692;11.958;2022-08-01T02:15:24;12.73;;;10.93;;
12990;SDS011;6560;57.692;11.958;2022-08-01T02:17:51;12.93;;;10.50;;
12990;SDS011;6560;57.692;11.958;2022-08-01T02:20:19;10.88;;;9.40;;
12990;SDS011;6560;57.692;11.958;2022-08-01T02:22:49;9.57;;;8.68;;
12990;SDS011;6560;57.692;11.958;2022-08-01T02:28:20;11.20;;;9.40;;
12990;SDS011;6560;57.692;11.958;2022-08-01T02:30:53;9.68;;;8.73;;
12990;SDS011;6560;57.692;11.958;2022-08-01T02:33:22;11.80;;;8.95;;
12990;SDS011;6560;57.692;11.958;2022-08-01T02:35:50;10.43;;;9.27;;
12990;SDS011;6560;57.692;11.958;2022-08-01T02:38:18;12.38;;;11.02;;
12990;SDS011;6560;57.692;11.958;2022-08-01T02:40:47;11.18;;;10.15;;
12990;SDS011;6560;57.692;11.958;2022-08-01T02:43:15;21.95;;;11.93;;
12990;SDS011;6560;57.692;11.958;2022-08-01T02:45:47;15.32;;;12.82;;
12990;SDS011;6560;57.692;11.958;2022-08-01T02:48:17;14.00;;;12.52;;
12990;SDS011;6560;57.692;11.958;2022-08-01T02:50:48;14.18;;;12.20;;
12990;SDS011;6560;57.692;11.958;2022-08-01T02:53:16;13.13;;;11.82;;
12990;SDS011;6560;57.692;11.958;2022-08-01T02:55:44;13.93;;;11.73;;
12990;SDS011;6560;57.692;11.958;2022-08-01T02:58:12;15.43;;;12.75;;
12990;SDS011;6560;57.692;11.958;2022-08-01T03:00:41;16.85;;;13.02;;
12990;SDS011;6560;57.692;11.958;2022-08-01T03:03:08;15.13;;;13.73;;
12990;SDS011;6560;57.692;11.958;2022-08-01T03:05:35;14.90;;;13.23;;
12990;SDS011;6560;57.692;11.958;2022-08-01T03:08:04;17.88;;;13.02;;
12990;SDS011;6560;57.692;11.958;2022-08-01T03:10:33;16.25;;;13.55;;
12990;SDS011;6560;57.692;11.958;2022-08-01T03:13:01;15.70;;;14.13;;
12990;SDS011;6560;57.692;11.958;2022-08-01T03:15:28;15.35;;;13.18;;
12990;SDS011;6560;57.692;11.958;2022-08-01T03:17:57;15.10;;;13.30;;
12990;SDS011;6560;57.692;11.958;2022-08-01T03:20:25;15.07;;;13.43;;
12990;SDS011;6560;57.692;11.958;2022-08-01T03:22:54;14.80;;;13.25;;
12990;SDS011;6560;57.692;11.958;2022-08-01T03:25:22;16.35;;;14.63;;
12990;SDS011;6560;57.692;11.958;2022-08-01T03:27:51;15.65;;;14.05;;
12990;SDS011;6560;57.692;11.958;2022-08-01T03:30:21;14.13;;;12.77;;
12990;SDS011;6560;57.692;11.958;2022-08-01T03:32:48;14.48;;;12.88;;
12990;SDS011;6560;57.692;11.958;2022-08-01T03:35:14;20.00;;;13.77;;
12990;SDS011;6560;57.692;11.958;2022-08-01T03:37:44;15.70;;;12.48;;
12990;SDS011;6560;57.692;11.958;2022-08-01T03:40:20;16.15;;;13.13;;
12990;SDS011;6560;57.692;11.958;2022-08-01T03:42:50;16.70;;;14.35;;
12990;SDS011;6560;57.692;11.958;2022-08-01T03:45:25;15.02;;;13.38;;
12990;SDS011;6560;57.692;11.958;2022-08-01T03:47:53;14.82;;;13.23;;
12990;SDS011;6560;57.692;11.958;2022-08-01T03:50:24;16.90;;;14.27;;
12990;SDS011;6560;57.692;11.958;2022-08-01T03:52:50;14.68;;;13.20;;
12990;SDS011;6560;57.692;11.958;2022-08-01T03:55:16;14.45;;;12.80;;
12990;SDS011;6560;57.692;11.958;2022-08-01T03:57:44;17.20;;;14.05;;
12990;SDS011;6560;57.692;11.958;2022-08-01T04:00:11;13.93;;;12.57;;
12990;SDS011;6560;57.692;11.958;2022-08-01T04:02:36;14.63;;;13.13;;
12990;SDS011;6560;57.692;11.958;2022-08-01T04:05:03;12.77;;;11.50;;
12990;SDS011;6560;57.692;11.958;2022-08-01T04:07:31;12.45;;;11.23;;
12990;SDS011;6560;57.692;11.958;2022-08-01T04:09:58;13.05;;;10.40;;
12990;SDS011;6560;57.692;11.958;2022-08-01T04:12:23;12.32;;;10.77;;
12990;SDS011;6560;57.692;11.958;2022-08-01T04:14:49;12.27;;;10.70;;
12990;SDS011;6560;57.692;11.958;2022-08-01T04:17:15;11.77;;;10.57;;
12990;SDS011;6560;57.692;11.958;2022-08-01T04:19:41;9.85;;;8.88;;
12990;SDS011;6560;57.692;11.958;2022-08-01T04:22:08;11.77;;;9.00;;
12990;SDS011;6560;57.692;11.958;2022-08-01T04:24:35;10.75;;;8.48;;
12990;SDS011;6560;57.692;11.958;2022-08-01T04:27:02;10.18;;;8.23;;
12990;SDS011;6560;57.692;11.958;2022-08-01T04:29:32;9.85;;;8.40;;
12990;SDS011;6560;57.692;11.958;2022-08-01T04:31:59;9.13;;;8.05;;
12990;SDS011;6560;57.692;11.958;2022-08-01T04:34:27;12.40;;;8.73;;
12990;SDS011;6560;57.692;11.958;2022-08-01T04:36:55;9.05;;;8.15;;
12990;SDS011;6560;57.692;11.958;2022-08-01T04:39:23;8.93;;;8.00;;
12990;SDS011;6560;57.692;11.958;2022-08-01T04:41:55;7.00;;;6.50;;
12990;SDS011;6560;57.692;11.958;2022-08-01T04:44:24;7.70;;;6.63;;
12990;SDS011;6560;57.692;11.958;2022-08-01T04:46:50;7.72;;;6.78;;
12990;SDS011;6560;57.692;11.958;2022-08-01T04:49:19;7.40;;;6.70;;
12990;SDS011;6560;57.692;11.958;2022-08-01T04:51:49;7.40;;;6.68;;
12990;SDS011;6560;57.692;11.958;2022-08-01T04:54:16;7.78;;;6.05;;
12990;SDS011;6560;57.692;11.958;2022-08-01T04:56:41;5.50;;;5.03;;
12990;SDS011;6560;57.692;11.958;2022-08-01T04:59:07;4.13;;;3.83;;
12990;SDS011;6560;57.692;11.958;2022-08-01T05:01:55;4.10;;;3.53;;
12990;SDS011;6560;57.692;11.958;2022-08-01T05:04:21;4.70;;;3.70;;
12990;SDS011;6560;57.692;11.958;2022-08-01T05:06:46;3.72;;;3.38;;
12990;SDS011;6560;57.692;11.958;2022-08-01T05:09:11;3.25;;;2.97;;
12990;SDS011;6560;57.692;11.958;2022-08-01T05:11:37;6.15;;;4.28;;
12990;SDS011;6560;57.692;11.958;2022-08-01T05:14:02;8.40;;;4.80;;
12990;SDS011;6560;57.692;11.958;2022-08-01T05:16:28;4.38;;;3.97;;
12990;SDS011;6560;57.692;11.958;2022-08-01T05:18:53;5.88;;;3.63;;
12990;SDS011;6560;57.692;11.958;2022-08-01T05:21:19;5.60;;;4.28;;
12990;SDS011;6560;57.692;11.958;2022-08-01T05:23:44;4.53;;;4.13;;
12990;SDS011;6560;57.692;11.958;2022-08-01T05:26:10;4.22;;;3.92;;
12990;SDS011;6560;57.692;11.958;2022-08-01T05:28:36;5.47;;;4.43;;
12990;SDS011;6560;57.692;11.958;2022-08-01T05:31:02;5.07;;;4.57;;
12990;SDS011;6560;57.692;11.958;2022-08-01T05:33:28;5.10;;;4.60;;
12990;SDS011;6560;57.692;11.958;2022-08-01T05:35:53;6.65;;;4.30;;
12990;SDS011;6560;57.692;11.958;2022-08-01T05:38:18;6.60;;;3.58;;
12990;SDS011;6560;57.692;11.958;2022-08-01T05:40:44;4.22;;;3.83;;
12990;SDS011;6560;57.692;11.958;2022-08-01T05:43:09;4.65;;;3.70;;
12990;SDS011;6560;57.692;11.958;2022-08-01T05:45:35;3.50;;;3.20;;
12990;SDS011;6560;57.692;11.958;2022-08-01T05:48:00;4.63;;;2.90;;
12990;SDS011;6560;57.692;11.958;2022-08-01T05:50:26;4.07;;;3.60;;
12990;SDS011;6560;57.692;11.958;2022-08-01T05:52:51;3.67;;;2.70;;
12990;SDS011;6560;57.692;11.958;2022-08-01T05:55:17;3.05;;;2.80;;
12990;SDS011;6560;57.692;11.958;2022-08-01T05:57:42;3.40;;;3.20;;
12990;SDS011;6560;57.692;11.958;2022-08-01T06:00:08;3.20;;;2.42;;
12990;SDS011;6560;57.692;11.958;2022-08-01T06:02:34;4.40;;;2.30;;
12990;SDS011;6560;57.692;11.958;2022-08-01T06:05:05;3.47;;;1.95;;
12990;SDS011;6560;57.692;11.958;2022-08-01T06:07:30;2.17;;;1.65;;
12990;SDS011;6560;57.692;11.958;2022-08-01T06:09:56;3.70;;;1.73;;
12990;SDS011;6560;57.692;11.958;2022-08-01T06:12:21;1.40;;;1.30;;
12990;SDS011;6560;57.692;11.958;2022-08-01T06:14:47;1.75;;;1.30;;
12990;SDS011;6560;57.692;11.958;2022-08-01T06:17:12;1.90;;;1.63;;
12990;SDS011;6560;57.692;11.958;2022-08-01T06:19:38;4.72;;;1.40;;
12990;SDS011;6560;57.692;11.958;2022-08-01T06:22:03;3.35;;;1.38;;
12990;SDS011;6560;57.692;11.958;2022-08-01T06:24:28;5.57;;;2.08;;
12990;SDS011;6560;57.692;11.958;2022-08-01T06:26:54;4.72;;;1.67;;
12990;SDS011;6560;57.692;11.958;2022-08-01T06:29:19;4.18;;;1.85;;
12990;SDS011;6560;57.692;11.958;2022-08-01T06:31:45;5.65;;;2.22;;
12990;SDS011;6560;57.692;11.958;2022-08-01T06:34:10;3.88;;;2.47;;
12990;SDS011;6560;57.692;11.958;2022-08-01T06:36:36;15.32;;;2.50;;
12990;SDS011;6560;57.692;11.958;2022-08-01T06:39:01;6.88;;;1.90;;
12990;SDS011;6560;57.692;11.958;2022-08-01T06:41:26;4.40;;;1.98;;
12990;SDS011;6560;57.692;11.958;2022-08-01T06:43:52;6.60;;;2.13;;
12990;SDS011;6560;57.692;11.958;2022-08-01T06:46:18;9.48;;;2.17;;
12990;SDS011;6560;57.692;11.958;2022-08-01T06:48:43;5.30;;;2.20;;
12990;SDS011;6560;57.692;11.958;2022-08-01T06:51:08;4.57;;;2.20;;
12990;SDS011;6560;57.692;11.958;2022-08-01T06:53:37;5.68;;;2.25;;
12990;SDS011;6560;57.692;11.958;2022-08-01T06:56:03;6.28;;;2.25;;
12990;SDS011;6560;57.692;11.958;2022-08-01T06:58:29;8.38;;;2.60;;
12990;SDS011;6560;57.692;11.958;2022-08-01T07:00:55;8.15;;;2.47;;
12990;SDS011;6560;57.692;11.958;2022-08-01T07:03:20;8.27;;;2.53;;
12990;SDS011;6560;57.692;11.958;2022-08-01T07:05:46;6.13;;;2.22;;
12990;SDS011;6560;57.692;11.958;2022-08-01T07:08:11;4.85;;;2.42;;
12990;SDS011;6560;57.692;11.958;2022-08-01T07:10:37;7.50;;;3.53;;
12990;SDS011;6560;57.692;11.958;2022-08-01T07:13:02;7.10;;;2.55;;
12990;SDS011;6560;57.692;11.958;2022-08-01T07:15:28;5.97;;;2.15;;
12990;SDS011;6560;57.692;11.958;2022-08-01T07:17:53;5.15;;;2.03;;
12990;SDS011;6560;57.692;11.958;2022-08-01T07:20:18;6.68;;;2.30;;
12990;SDS011;6560;57.692;11.958;2022-08-01T07:22:44;6.90;;;2.88;;
12990;SDS011;6560;57.692;11.958;2022-08-01T07:25:10;4.65;;;2.55;;
12990;SDS011;6560;57.692;11.958;2022-08-01T07:27:35;8.77;;;2.47;;
12990;SDS011;6560;57.692;11.958;2022-08-01T07:30:02;5.53;;;2.20;;
12990;SDS011;6560;57.692;11.958;2022-08-01T07:32:29;5.78;;;2.13;;
12990;SDS011;6560;57.692;11.958;2022-08-01T07:34:54;3.58;;;2.00;;
12990;SDS011;6560;57.692;11.958;2022-08-01T07:37:20;9.23;;;2.45;;
12990;SDS011;6560;57.692;11.958;2022-08-01T07:39:45;6.32;;;2.40;;
12990;SDS011;6560;57.692;11.958;2022-08-01T07:42:10;4.95;;;1.88;;
12990;SDS011;6560;57.692;11.958;2022-08-01T07:44:36;5.75;;;2.00;;
12990;SDS011;6560;57.692;11.958;2022-08-01T07:47:02;6.57;;;2.00;;
12990;SDS011;6560;57.692;11.958;2022-08-01T07:49:28;7.30;;;2.60;;
12990;SDS011;6560;57.692;11.958;2022-08-01T07:51:54;3.53;;;1.73;;
12990;SDS011;6560;57.692;11.958;2022-08-01T07:54:20;8.38;;;2.40;;
12990;SDS011;6560;57.692;11.958;2022-08-01T07:56:48;6.68;;;1.67;;
12990;SDS011;6560;57.692;11.958;2022-08-01T07:59:14;4.22;;;2.28;;
12990;SDS011;6560;57.692;11.958;2022-08-01T08:01:40;4.20;;;1.65;;
12990;SDS011;6560;57.692;11.958;2022-08-01T08:04:06;3.95;;;1.90;;
12990;SDS011;6560;57.692;11.958;2022-08-01T08:06:33;8.55;;;2.33;;
12990;SDS011;6560;57.692;11.958;2022-08-01T08:08:58;7.22;;;1.95;;
12990;SDS011;6560;57.692;11.958;2022-08-01T08:11:24;3.38;;;1.92;;
12990;SDS011;6560;57.692;11.958;2022-08-01T08:13:49;3.67;;;1.60;;
12990;SDS011;6560;57.692;11.958;2022-08-01T08:16:15;6.90;;;1.85;;
12990;SDS011;6560;57.692;11.958;2022-08-01T08:18:40;1.88;;;1.52;;
12990;SDS011;6560;57.692;11.958;2022-08-01T08:21:06;5.82;;;1.70;;
12990;SDS011;6560;57.692;11.958;2022-08-01T08:23:31;2.55;;;1.40;;
12990;SDS011;6560;57.692;11.958;2022-08-01T08:26:15;3.72;;;1.90;;
12990;SDS011;6560;57.692;11.958;2022-08-01T08:28:41;4.68;;;1.90;;
12990;SDS011;6560;57.692;11.958;2022-08-01T08:31:07;5.32;;;2.08;;
12990;SDS011;6560;57.692;11.958;2022-08-01T08:33:33;5.80;;;2.13;;
12990;SDS011;6560;57.692;11.958;2022-08-01T08:35:58;5.75;;;2.05;;
12990;SDS011;6560;57.692;11.958;2022-08-01T08:38:24;5.15;;;1.98;;
12990;SDS011;6560;57.692;11.958;2022-08-01T08:40:52;6.03;;;2.00;;
12990;SDS011;6560;57.692;11.958;2022-08-01T08:43:17;6.72;;;2.20;;
12990;SDS011;6560;57.692;11.958;2022-08-01T08:45:43;11.32;;;2.13;;
12990;SDS011;6560;57.692;11.958;2022-08-01T08:48:10;4.97;;;1.92;;
12990;SDS011;6560;57.692;11.958;2022-08-01T08:50:37;6.18;;;2.28;;
12990;SDS011;6560;57.692;11.958;2022-08-01T08:53:03;7.97;;;2.20;;
12990;SDS011;6560;57.692;11.958;2022-08-01T08:55:29;5.50;;;1.80;;
12990;SDS011;6560;57.692;11.958;2022-08-01T08:57:55;7.20;;;1.73;;
12990;SDS011;6560;57.692;11.958;2022-08-01T09:00:21;3.90;;;1.92;;
12990;SDS011;6560;57.692;11.958;2022-08-01T09:02:47;6.80;;;1.90;;
12990;SDS011;6560;57.692;11.958;2022-08-01T09:05:14;7.53;;;2.00;;
12990;SDS011;6560;57.692;11.958;2022-08-01T09:07:40;7.70;;;1.80;;
12990;SDS011;6560;57.692;11.958;2022-08-01T09:10:05;7.05;;;2.03;;
12990;SDS011;6560;57.692;11.958;2022-08-01T09:12:32;6.68;;;2.17;;
12990;SDS011;6560;57.692;11.958;2022-08-01T09:14:58;6.47;;;2.08;;
12990;SDS011;6560;57.692;11.958;2022-08-01T09:17:24;5.32;;;1.88;;
12990;SDS011;6560;57.692;11.958;2022-08-01T09:19:51;4.32;;;2.20;;
12990;SDS011;6560;57.692;11.958;2022-08-01T09:22:19;5.68;;;2.15;;
12990;SDS011;6560;57.692;11.958;2022-08-01T09:25:06;6.05;;;2.50;;
12990;SDS011;6560;57.692;11.958;2022-08-01T09:27:34;9.40;;;2.22;;
12990;SDS011;6560;57.692;11.958;2022-08-01T09:30:13;5.30;;;2.22;;
12990;SDS011;6560;57.692;11.958;2022-08-01T09:35:37;7.07;;;1.88;;
12990;SDS011;6560;57.692;11.958;2022-08-01T09:38:16;7.20;;;1.83;;
12990;SDS011;6560;57.692;11.958;2022-08-01T09:40:51;4.93;;;1.73;;
12990;SDS011;6560;57.692;11.958;2022-08-01T09:43:19;5.55;;;1.88;;
12990;SDS011;6560;57.692;11.958;2022-08-01T09:45:46;11.70;;;2.60;;
12990;SDS011;6560;57.692;11.958;2022-08-01T09:48:12;6.07;;;2.28;;
12990;SDS011;6560;57.692;11.958;2022-08-01T09:50:47;5.22;;;1.92;;
12990;SDS011;6560;57.692;11.958;2022-08-01T09:53:15;7.50;;;2.58;;
12990;SDS011;6560;57.692;11.958;2022-08-01T09:55:41;5.13;;;1.75;;
12990;SDS011;6560;57.692;11.958;2022-08-01T09:58:07;5.63;;;2.38;;
12990;SDS011;6560;57.692;11.958;2022-08-01T10:00:35;5.72;;;2.08;;
12990;SDS011;6560;57.692;11.958;2022-08-01T10:03:18;4.43;;;2.05;;
12990;SDS011;6560;57.692;11.958;2022-08-01T10:05:45;4.75;;;2.38;;
12990;SDS011;6560;57.692;11.958;2022-08-01T10:08:12;4.80;;;2.17;;
12990;SDS011;6560;57.692;11.958;2022-08-01T10:10:37;9.30;;;2.40;;
12990;SDS011;6560;57.692;11.958;2022-08-01T10:13:03;8.35;;;2.50;;
12990;SDS011;6560;57.692;11.958;2022-08-01T10:15:29;5.18;;;2.20;;
12990;SDS011;6560;57.692;11.958;2022-08-01T10:17:59;6.85;;;2.13;;
12990;SDS011;6560;57.692;11.958;2022-08-01T10:20:28;9.73;;;2.58;;
12990;SDS011;6560;57.692;11.958;2022-08-01T10:22:55;8.85;;;2.35;;
12990;SDS011;6560;57.692;11.958;2022-08-01T10:25:23;8.73;;;3.70;;
12990;SDS011;6560;57.692;11.958;2022-08-01T10:27:53;12.77;;;4.80;;
12990;SDS011;6560;57.692;11.958;2022-08-01T10:30:22;5.95;;;2.25;;
12990;SDS011;6560;57.692;11.958;2022-08-01T10:32:49;6.63;;;2.38;;
12990;SDS011;6560;57.692;11.958;2022-08-01T10:35:17;5.82;;;2.67;;
12990;SDS011;6560;57.692;11.958;2022-08-01T10:37:44;3.70;;;2.08;;
12990;SDS011;6560;57.692;11.958;2022-08-01T10:40:15;4.57;;;1.50;;
12990;SDS011;6560;57.692;11.958;2022-08-01T10:42:41;5.80;;;1.95;;
12990;SDS011;6560;57.692;11.958;2022-08-01T10:45:08;3.78;;;1.98;;
12990;SDS011;6560;57.692;11.958;2022-08-01T10:50:31;4.10;;;1.90;;
12990;SDS011;6560;57.692;11.958;2022-08-01T10:53:06;3.58;;;1.67;;
12990;SDS011;6560;57.692;11.958;2022-08-01T10:58:21;2.53;;;1.48;;
12990;SDS011;6560;57.692;11.958;2022-08-01T11:01:15;5.95;;;1.77;;
12990;SDS011;6560;57.692;11.958;2022-08-01T11:03:57;3.30;;;1.50;;
12990;SDS011;6560;57.692;11.958;2022-08-01T11:08:58;3.28;;;1.40;;
12990;SDS011;6560;57.692;11.958;2022-08-01T11:14:24;2.40;;;1.35;;
12990;SDS011;6560;57.692;11.958;2022-08-01T11:16:49;4.35;;;1.85;;
12990;SDS011;6560;57.692;11.958;2022-08-01T11:19:15;4.18;;;1.42;;
12990;SDS011;6560;57.692;11.958;2022-08-01T11:27:22;2.90;;;1.48;;
12990;SDS011;6560;57.692;11.958;2022-08-01T11:32:48;3.33;;;1.70;;
12990;SDS011;6560;57.692;11.958;2022-08-01T11:35:16;4.93;;;1.63;;
12990;SDS011;6560;57.692;11.958;2022-08-01T11:37:44;3.28;;;1.95;;
12990;SDS011;6560;57.692;11.958;2022-08-01T11:40:17;4.47;;;1.55;;
12990;SDS011;6560;57.692;11.958;2022-08-01T11:42:43;3.33;;;1.80;;
12990;SDS011;6560;57.692;11.958;2022-08-01T11:45:08;5.30;;;2.20;;
12990;SDS011;6560;57.692;11.958;2022-08-01T11:47:43;10.90;;;2.00;;
12990;SDS011;6560;57.692;11.958;2022-08-01T11:50:32;1.80;;;1.40;;
12990;SDS011;6560;57.692;11.958;2022-08-01T11:53:01;2.70;;;1.90;;
12990;SDS011;6560;57.692;11.958;2022-08-01T11:55:31;3.22;;;2.08;;
12990;SDS011;6560;57.692;11.958;2022-08-01T11:58:01;4.53;;;1.90;;
12990;SDS011;6560;57.692;11.958;2022-08-01T12:00:28;6.40;;;1.92;;
12990;SDS011;6560;57.692;11.958;2022-08-01T12:03:02;8.05;;;1.85;;
12990;SDS011;6560;57.692;11.958;2022-08-01T12:05:29;5.45;;;2.33;;
12990;SDS011;6560;57.692;11.958;2022-08-01T12:07:56;3.10;;;1.70;;
12990;SDS011;6560;57.692;11.958;2022-08-01T12:10:23;5.45;;;1.95;;
12990;SDS011;6560;57.692;11.958;2022-08-01T12:12:59;7.18;;;2.40;;
12990;SDS011;6560;57.692;11.958;2022-08-01T12:15:29;5.60;;;2.13;;
12990;SDS011;6560;57.692;11.958;2022-08-01T12:17:59;5.43;;;2.30;;
12990;SDS011;6560;57.692;11.958;2022-08-01T12:20:37;6.57;;;1.58;;
12990;SDS011;6560;57.692;11.958;2022-08-01T12:23:08;5.50;;;2.58;;
12990;SDS011;6560;57.692;11.958;2022-08-01T12:25:35;2.85;;;1.88;;
12990;SDS011;6560;57.692;11.958;2022-08-01T12:28:05;3.72;;;1.75;;
12990;SDS011;6560;57.692;11.958;2022-08-01T12:30:33;3.35;;;1.83;;
12990;SDS011;6560;57.692;11.958;2022-08-01T12:33:01;3.97;;;1.65;;
12990;SDS011;6560;57.692;11.958;2022-08-01T12:35:28;5.25;;;1.65;;
12990;SDS011;6560;57.692;11.958;2022-08-01T12:37:55;4.88;;;1.63;;
12990;SDS011;6560;57.692;11.958;2022-08-01T12:40:26;3.65;;;1.42;;
12990;SDS011;6560;57.692;11.958;2022-08-01T12:42:57;2.90;;;1.40;;
12990;SDS011;6560;57.692;11.958;2022-08-01T12:45:26;5.55;;;2.00;;
12990;SDS011;6560;57.692;11.958;2022-08-01T12:47:55;3.25;;;1.60;;
12990;SDS011;6560;57.692;11.958;2022-08-01T12:50:25;3.53;;;1.50;;
12990;SDS011;6560;57.692;11.958;2022-08-01T12:52:53;2.45;;;1.58;;
12990;SDS011;6560;57.692;11.958;2022-08-01T12:55:20;7.10;;;2.17;;
12990;SDS011;6560;57.692;11.958;2022-08-01T12:57:47;2.38;;;1.90;;
12990;SDS011;6560;57.692;11.958;2022-08-01T13:02:44;5.68;;;1.98;;
12990;SDS011;6560;57.692;11.958;2022-08-01T13:05:11;5.18;;;2.47;;
12990;SDS011;6560;57.692;11.958;2022-08-01T13:07:42;8.60;;;2.65;;
12990;SDS011;6560;57.692;11.958;2022-08-01T13:10:08;4.75;;;1.92;;
12990;SDS011;6560;57.692;11.958;2022-08-01T13:12:34;3.45;;;1.77;;
12990;SDS011;6560;57.692;11.958;2022-08-01T13:15:15;5.78;;;1.70;;
12990;SDS011;6560;57.692;11.958;2022-08-01T13:17:41;8.75;;;2.22;;
12990;SDS011;6560;57.692;11.958;2022-08-01T13:20:07;3.83;;;2.00;;
12990;SDS011;6560;57.692;11.958;2022-08-01T13:22:34;4.47;;;2.08;;
12990;SDS011;6560;57.692;11.958;2022-08-01T13:25:12;3.88;;;1.75;;
12990;SDS011;6560;57.692;11.958;2022-08-01T13:27:39;4.93;;;2.33;;
12990;SDS011;6560;57.692;11.958;2022-08-01T13:30:11;6.57;;;2.83;;
12990;SDS011;6560;57.692;11.958;2022-08-01T13:32:37;6.57;;;1.90;;
12990;SDS011;6560;57.692;11.958;2022-08-01T13:35:04;10.82;;;2.38;;
12990;SDS011;6560;57.692;11.958;2022-08-01T13:37:33;2.58;;;1.50;;
12990;SDS011;6560;57.692;11.958;2022-08-01T13:39:59;4.45;;;2.13;;
12990;SDS011;6560;57.692;11.958;2022-08-01T13:42:24;4.15;;;1.75;;
12990;SDS011;6560;57.692;11.958;2022-08-01T13:44:50;3.72;;;1.88;;
12990;SDS011;6560;57.692;11.958;2022-08-01T13:47:15;10.95;;;4.35;;
12990;SDS011;6560;57.692;11.958;2022-08-01T13:49:41;12.00;;;10.80;;
12990;SDS011;6560;57.692;11.958;2022-08-01T13:52:06;14.00;;;4.20;;
12990;SDS011;6560;57.692;11.958;2022-08-01T13:54:32;6.28;;;2.58;;
12990;SDS011;6560;57.692;11.958;2022-08-01T13:56:58;7.55;;;2.53;;
12990;SDS011;6560;57.692;11.958;2022-08-01T13:59:24;7.55;;;2.55;;
12990;SDS011;6560;57.692;11.958;2022-08-01T14:01:49;6.32;;;3.42;;
12990;SDS011;6560;57.692;11.958;2022-08-01T14:04:15;4.63;;;2.38;;
12990;SDS011;6560;57.692;11.958;2022-08-01T14:06:40;4.53;;;1.73;;
12990;SDS011;6560;57.692;11.958;2022-08-01T14:09:06;4.03;;;2.00;;
12990;SDS011;6560;57.692;11.958;2022-08-01T14:11:32;5.53;;;1.77;;
12990;SDS011;6560;57.692;11.958;2022-08-01T14:13:58;4.32;;;2.00;;
12990;SDS011;6560;57.692;11.958;2022-08-01T14:16:23;4.38;;;1.60;;
12990;SDS011;6560;57.692;11.958;2022-08-01T14:18:49;5.75;;;2.30;;
12990;SDS011;6560;57.692;11.958;2022-08-01T14:21:14;5.60;;;2.30;;
12990;SDS011;6560;57.692;11.958;2022-08-01T14:23:40;5.10;;;1.98;;
12990;SDS011;6560;57.692;11.958;2022-08-01T14:26:08;3.53;;;1.50;;
12990;SDS011;6560;57.692;11.958;2022-08-01T14:28:33;4.68;;;1.67;;
12990;SDS011;6560;57.692;11.958;2022-08-01T14:30:59;3.95;;;1.52;;
12990;SDS011;6560;57.692;11.958;2022-08-01T14:33:25;5.18;;;2.03;;
12990;SDS011;6560;57.692;11.958;2022-08-01T14:35:51;4.75;;;1.58;;
12990;SDS011;6560;57.692;11.958;2022-08-01T14:38:17;3.00;;;1.35;;
12990;SDS011;6560;57.692;11.958;2022-08-01T14:40:43;5.07;;;2.17;;
12990;SDS011;6560;57.692;11.958;2022-08-01T14:43:11;4.55;;;1.30;;
12990;SDS011;6560;57.692;11.958;2022-08-01T14:45:37;3.75;;;2.00;;
12990;SDS011;6560;57.692;11.958;2022-08-01T14:48:03;3.80;;;1.80;;
12990;SDS011;6560;57.692;11.958;2022-08-01T14:50:29;4.43;;;1.58;;
12990;SDS011;6560;57.692;11.958;2022-08-01T14:52:54;3.88;;;1.88;;
12990;SDS011;6560;57.692;11.958;2022-08-01T14:55:19;2.88;;;1.30;;
12990;SDS011;6560;57.692;11.958;2022-08-01T14:57:48;4.32;;;1.55;;
12990;SDS011;6560;57.692;11.958;2022-08-01T15:00:14;6.05;;;1.85;;
12990;SDS011;6560;57.692;11.958;2022-08-01T15:02:40;4.95;;;1.73;;
12990;SDS011;6560;57.692;11.958;2022-08-01T15:05:06;2.50;;;1.52;;
12990;SDS011;6560;57.692;11.958;2022-08-01T15:07:32;2.72;;;1.38;;
12990;SDS011;6560;57.692;11.958;2022-08-01T15:09:58;5.60;;;1.65;;
12990;SDS011;6560;57.692;11.958;2022-08-01T15:12:23;5.95;;;1.70;;
12990;SDS011;6560;57.692;11.958;2022-08-01T15:14:48;3.88;;;1.70;;
12990;SDS011;6560;57.692;11.958;2022-08-01T15:19:49;4.95;;;1.70;;